Airport View

Enter AWOS ICAO identifier for current METAR.

ex. KFNL

KBGF 171235Z AUTO 00000KT 10SM CLR M03/M04 A3008 RMK A01

17 Nov 2019 12:42

Frequency: 121.675

Phone: 931-967-8445

Other Area AWOS: KTHA - KFYM - KSYI - K4A6

TAF KCHA 171120Z 1712/1812 00000KT P6SM SKC FM172200 VRB03KT P6SM BKN200 FM180500 VRB03KT P6SM SCT250